Time;durP1;ratioP1;P1;durP2;ratioP2;P2;SDS_P1;SDS_P2;PMS_P1;PMS_P2;Temp;Humidity;BMP_temperature;BMP_pressure;BME280_temperature;BME280_humidity;BME280_pressure;Samples;Min_cycle;Max_cycle;Signal;HPM_P1;HPM_P2
2022/05/02 00:06:02;;;;;;;10.10;6.97;;;11.10;99.90;;;;;;6652589;88;20193;-77
2022/05/02 00:16:05;;;;;;;10.07;7.20;;;11.00;99.90;;;;;;6650948;89;20615;-77
2022/05/02 00:26:05;;;;;;;13.75;8.00;;;11.00;99.90;;;;;;6647076;89;20668;-77
2022/05/02 00:36:06;;;;;;;12.18;7.35;;;10.90;99.90;;;;;;6653415;89;20323;-77
2022/05/02 00:46:21;;;;;;;11.25;7.70;;;10.90;99.90;;;;;;6650747;89;20282;-77
2022/05/02 00:56:22;;;;;;;13.27;8.35;;;10.80;99.90;;;;;;6657623;88;20224;-77
2022/05/02 01:16:43;;;;;;;14.00;8.10;;;10.70;99.90;;;;;;6641463;89;20263;-77
2022/05/02 01:26:43;;;;;;;14.63;8.60;;;10.60;99.90;;;;;;6632974;89;20210;-78
2022/05/02 01:36:44;;;;;;;14.20;8.18;;;10.60;99.90;;;;;;6644375;88;20525;-77
2022/05/02 01:46:45;;;;;;;14.90;8.70;;;10.50;99.90;;;;;;6649471;89;20204;-77
2022/05/02 01:56:45;;;;;;;13.50;8.93;;;10.50;99.90;;;;;;6650364;89;20310;-77
2022/05/02 02:06:46;;;;;;;11.65;7.87;;;10.40;99.90;;;;;;6661551;88;20225;-77
2022/05/02 02:16:46;;;;;;;11.77;7.57;;;10.50;99.90;;;;;;6647917;89;20210;-77
2022/05/02 02:26:47;;;;;;;12.48;7.55;;;10.50;99.90;;;;;;6648667;89;20192;-76
2022/05/02 02:36:47;;;;;;;12.73;7.57;;;10.50;99.90;;;;;;6645463;89;20581;-77
2022/05/02 02:46:48;;;;;;;12.25;7.62;;;10.40;99.90;;;;;;6644987;89;20531;-77
2022/05/02 02:56:49;;;;;;;11.73;7.80;;;10.80;99.90;;;;;;6648559;89;20216;-77
2022/05/02 03:06:49;;;;;;;12.23;7.53;;;10.50;99.90;;;;;;6648934;89;20219;-77
2022/05/02 03:16:50;;;;;;;13.55;9.68;;;10.40;99.90;;;;;;6679887;88;21028;-77
2022/05/02 03:26:51;;;;;;;18.90;11.88;;;10.30;99.90;;;;;;6649308;89;20679;-77
2022/05/02 03:36:51;;;;;;;20.33;13.07;;;10.20;99.90;;;;;;6652518;89;20242;-77
2022/05/02 03:46:52;;;;;;;21.55;12.95;;;10.10;99.90;;;;;;6651652;89;20615;-77
2022/05/02 03:56:52;;;;;;;22.00;13.57;;;10.00;99.90;;;;;;6651054;88;20766;-77
2022/05/02 04:06:53;;;;;;;20.65;13.45;;;9.90;99.90;;;;;;6653182;89;20260;-77
2022/05/02 04:16:53;;;;;;;20.02;13.07;;;9.90;99.90;;;;;;6651708;89;20264;-77
2022/05/02 04:26:54;;;;;;;17.73;11.80;;;10.00;99.90;;;;;;6663645;88;20204;-77
2022/05/02 04:36:54;;;;;;;20.85;12.80;;;10.10;99.90;;;;;;6652055;89;20705;-77
2022/05/02 04:46:55;;;;;;;23.27;13.05;;;10.20;99.90;;;;;;6652308;88;20195;-77
2022/05/02 04:56:55;;;;;;;18.70;12.43;;;10.40;99.90;;;;;;6657602;88;20204;-78
2022/05/02 05:06:56;;;;;;;20.88;13.93;;;10.30;99.90;;;;;;6664112;88;20185;-78
2022/05/02 05:17:00;;;;;;;18.33;12.60;;;10.30;99.90;;;;;;6659816;89;20204;-79
2022/05/02 05:27:27;;;;;;;21.87;13.40;;;10.30;99.90;;;;;;6692903;88;20371;-77
2022/05/02 05:37:48;;;;;;;19.90;12.88;;;10.30;99.90;;;;;;6657423;89;20902;-78
2022/05/02 05:48:19;;;;;;;19.00;13.00;;;10.50;99.90;;;;;;6651819;89;20192;-78
2022/05/02 05:58:45;;;;;;;20.15;12.90;;;10.70;99.90;;;;;;6655412;88;20213;-78
2022/05/02 06:08:47;;;;;;;21.10;13.17;;;10.90;99.90;;;;;;6665662;88;20193;-78
2022/05/02 06:18:49;;;;;;;19.02;12.70;;;11.70;99.90;;;;;;6655392;89;21089;-78
2022/05/02 06:28:52;;;;;;;16.40;10.38;;;11.90;99.90;;;;;;6671319;88;20236;-79
2022/05/02 06:39:10;;;;;;;19.27;11.90;;;12.00;99.90;;;;;;6670189;88;20253;-78
2022/05/02 06:49:13;;;;;;;18.77;11.50;;;12.40;99.90;;;;;;6657797;88;20229;-78
2022/05/02 06:59:44;;;;;;;18.33;12.07;;;12.30;99.90;;;;;;6671946;88;20217;-77
2022/05/02 07:09:50;;;;;;;16.70;11.35;;;12.60;99.90;;;;;;6657348;88;20731;-77
2022/05/02 07:20:01;;;;;;;17.15;12.10;;;13.80;99.90;;;;;;6658198;88;20288;-79
2022/05/02 07:30:02;;;;;;;19.33;12.18;;;14.00;99.90;;;;;;6658052;88;20202;-78
2022/05/02 07:40:05;;;;;;;17.92;11.70;;;14.30;99.90;;;;;;6658694;88;20703;-79
2022/05/02 07:50:06;;;;;;;17.73;11.30;;;15.40;99.90;;;;;;6654255;88;20227;-79
2022/05/02 08:00:10;;;;;;;17.20;11.07;;;15.50;99.90;;;;;;6651692;88;20251;-78
2022/05/02 08:10:27;;;;;;;16.02;10.90;;;15.60;99.90;;;;;;6651974;88;20191;-79
2022/05/02 08:21:00;;;;;;;16.40;10.15;;;15.70;99.90;;;;;;6653566;88;20257;-80
2022/05/02 08:31:14;;;;;;;16.67;9.70;;;16.40;99.90;;;;;;6653522;89;20222;-80
2022/05/02 08:41:31;;;;;;;12.47;9.40;;;16.40;99.90;;;;;;6654123;89;20189;-80
2022/05/02 08:52:09;;;;;;;13.50;8.82;;;16.80;99.90;;;;;;6656534;89;20193;-80
2022/05/02 09:02:48;;;;;;;12.85;7.65;;;18.60;99.00;;;;;;6657161;89;20206;-81
2022/05/02 09:13:31;;;;;;;16.45;8.55;;;18.50;99.10;;;;;;6653575;89;20237;-81
2022/05/02 09:23:35;;;;;;;10.73;7.20;;;19.80;97.90;;;;;;6650401;88;20201;-81
2022/05/02 09:33:57;;;;;;;14.67;7.80;;;20.10;96.70;;;;;;6653103;89;20206;-80
2022/05/02 10:05:09;;;;;;;10.45;7.45;;;22.50;91.10;;;;;;6667132;89;20222;-81
2022/05/02 10:15:32;;;;;;;11.52;7.32;;;23.20;90.30;;;;;;6667714;88;20239;-81
2022/05/02 10:25:36;;;;;;;9.57;6.72;;;23.50;88.00;;;;;;6667634;88;20192;-80
2022/05/02 10:35:41;;;;;;;11.57;6.93;;;23.90;87.90;;;;;;6665902;89;20217;-81
2022/05/02 10:45:41;;;;;;;9.80;7.32;;;24.60;84.30;;;;;;6665418;89;20191;-81
2022/05/02 10:56:38;;;;;;;10.70;6.82;;;24.70;83.50;;;;;;6684215;77;20201;-82
2022/05/02 11:07:15;;;;;;;9.70;7.40;;;24.20;83.00;;;;;;6721333;88;20175;-83
2022/05/02 11:17:38;;;;;;;12.07;6.82;;;24.10;82.90;;;;;;6745599;88;20318;-84
2022/05/02 11:28:20;;;;;;;10.35;7.28;;;24.50;82.70;;;;;;6763456;88;20211;-85
2022/05/02 11:39:02;;;;;;;9.25;6.90;;;26.10;79.20;;;;;;6766565;88;20181;-82
2022/05/02 11:49:29;;;;;;;12.13;7.53;;;26.70;75.30;;;;;;6670116;88;20184;-84
2022/05/02 11:59:42;;;;;;;11.12;6.28;;;26.70;74.60;;;;;;6733384;88;20364;-84
2022/05/02 12:09:44;;;;;;;10.68;7.20;;;27.00;76.00;;;;;;6733524;88;20154;-86
2022/05/02 12:19:44;;;;;;;7.90;6.30;;;26.80;73.00;;;;;;6733894;88;20174;-85
2022/05/02 12:30:00;;;;;;;8.35;7.22;;;27.50;71.80;;;;;;6706981;88;20231;-85
2022/05/02 12:40:12;;;;;;;9.23;7.30;;;25.80;70.90;;;;;;6682429;89;20167;-83
2022/05/02 12:50:20;;;;;;;9.60;6.60;;;25.00;72.30;;;;;;6696991;88;20171;-85
2022/05/02 13:00:31;;;;;;;10.80;5.90;;;27.10;69.50;;;;;;6707814;88;20723;-84
2022/05/02 13:10:31;;;;;;;8.57;6.25;;;26.70;68.60;;;;;;6767388;87;20240;-85
2022/05/02 13:20:32;;;;;;;8.35;6.03;;;27.30;69.30;;;;;;6765193;88;20250;-81
2022/05/02 13:30:33;;;;;;;8.07;5.65;;;28.20;67.30;;;;;;6764803;88;20841;-79
2022/05/02 13:40:57;;;;;;;7.62;5.40;;;29.00;66.00;;;;;;6768636;88;20273;-81
2022/05/02 13:51:18;;;;;;;7.53;5.60;;;27.70;65.90;;;;;;6768636;88;20888;-80
2022/05/02 14:01:35;;;;;;;9.05;4.95;;;27.70;65.40;;;;;;6761637;88;20894;-80
2022/05/02 14:11:37;;;;;;;9.13;6.20;;;27.50;65.50;;;;;;6731054;88;20188;-81
2022/05/02 14:21:46;;;;;;;8.27;6.25;;;26.60;65.30;;;;;;6731249;88;20166;-81
2022/05/02 14:31:46;;;;;;;12.37;6.20;;;24.90;66.90;;;;;;6731141;88;20205;-81
2022/05/02 14:41:47;;;;;;;10.93;6.65;;;24.10;67.80;;;;;;6727632;88;20256;-81
2022/05/02 14:51:51;;;;;;;11.77;6.80;;;23.40;70.50;;;;;;6731129;88;20298;-82
2022/05/02 15:01:54;;;;;;;11.35;7.47;;;22.70;71.60;;;;;;6731113;88;20225;-82
2022/05/02 15:12:14;;;;;;;13.83;6.70;;;22.70;71.30;;;;;;6761781;88;20402;-81
2022/05/02 15:22:24;;;;;;;10.43;6.53;;;23.60;70.30;;;;;;6730432;88;20174;-81
2022/05/02 15:43:23;;;;;;;13.02;5.72;;;24.20;69.70;;;;;;6715486;88;20186;-81
2022/05/02 15:53:24;;;;;;;8.68;5.47;;;23.90;69.40;;;;;;6743906;88;20338;-81
2022/05/02 16:03:25;;;;;;;6.72;5.12;;;23.30;70.80;;;;;;6758402;88;20200;-80
2022/05/02 16:13:40;;;;;;;9.15;4.82;;;23.10;72.30;;;;;;6762311;88;20217;-80
2022/05/02 16:23:42;;;;;;;6.18;4.60;;;22.30;73.80;;;;;;6752973;88;20218;-80
2022/05/02 16:33:42;;;;;;;8.30;5.32;;;21.90;74.10;;;;;;6756817;88;20176;-83
2022/05/02 16:44:05;;;;;;;7.18;5.22;;;21.60;74.90;;;;;;6751746;88;20177;-83
2022/05/02 16:54:27;;;;;;;8.02;5.70;;;21.30;75.80;;;;;;6699818;77;20195;-80
2022/05/02 17:04:28;;;;;;;11.00;5.60;;;21.20;77.20;;;;;;6751741;88;20177;-82
2022/05/02 17:14:29;;;;;;;12.35;5.75;;;20.90;76.90;;;;;;6751086;88;20179;-80
2022/05/02 17:24:44;;;;;;;7.55;4.95;;;20.70;78.00;;;;;;6748793;88;20334;-81
2022/05/02 17:34:49;;;;;;;8.63;5.53;;;20.90;77.60;;;;;;6757818;88;20284;-82
2022/05/02 17:44:53;;;;;;;7.32;4.85;;;20.90;77.60;;;;;;6745831;88;20313;-82
2022/05/02 17:54:56;;;;;;;10.82;5.28;;;20.50;78.00;;;;;;6742346;88;20626;-82
2022/05/02 18:04:57;;;;;;;10.05;5.10;;;20.30;77.80;;;;;;6731637;88;20185;-80
2022/05/02 18:15:18;;;;;;;7.75;5.20;;;19.70;79.30;;;;;;6731591;88;20220;-81
2022/05/02 18:25:20;;;;;;;9.85;5.25;;;19.30;80.80;;;;;;6733433;88;20229;-82
2022/05/02 18:56:22;;;;;;;8.65;5.40;;;18.40;84.80;;;;;;6741548;88;20217;-82
2022/05/02 19:06:25;;;;;;;7.57;5.45;;;18.10;85.80;;;;;;6755208;88;20225;-82
2022/05/02 19:16:35;;;;;;;7.53;5.47;;;17.90;87.10;;;;;;6762867;88;20182;-81
2022/05/02 19:26:36;;;;;;;8.05;4.95;;;17.60;88.90;;;;;;6749726;88;20715;-81
2022/05/02 19:47:40;;;;;;;8.68;5.85;;;17.30;91.30;;;;;;6709980;88;20182;-82
2022/05/02 19:57:43;;;;;;;7.45;5.70;;;17.50;91.50;;;;;;6713599;88;20241;-80
2022/05/02 20:07:44;;;;;;;9.02;6.37;;;17.40;92.00;;;;;;6720319;88;20242;-81
2022/05/02 20:17:45;;;;;;;10.60;5.80;;;17.00;93.00;;;;;;6726733;88;20201;-81
2022/05/02 20:27:46;;;;;;;10.00;6.23;;;17.10;93.70;;;;;;6711896;88;20211;-80
2022/05/02 20:37:46;;;;;;;11.17;6.37;;;16.90;94.40;;;;;;6708485;88;20185;-79
2022/05/02 20:47:53;;;;;;;9.70;6.00;;;16.80;95.10;;;;;;6726815;88;20542;-80
2022/05/02 20:57:56;;;;;;;11.98;6.35;;;16.70;96.00;;;;;;6731820;88;20186;-81
2022/05/02 21:07:57;;;;;;;10.93;6.30;;;16.60;96.80;;;;;;6749404;88;20256;-81
2022/05/02 21:18:04;;;;;;;9.07;5.93;;;16.40;97.30;;;;;;6743459;88;20201;-81
2022/05/02 21:28:32;;;;;;;8.20;6.03;;;16.10;98.60;;;;;;6737985;88;20759;-81
2022/05/02 21:38:33;;;;;;;8.48;6.22;;;15.70;99.90;;;;;;6708236;88;20684;-80
2022/05/02 21:48:33;;;;;;;9.57;6.30;;;15.50;99.90;;;;;;6711574;88;20306;-81
2022/05/02 21:58:34;;;;;;;9.57;6.25;;;15.20;99.90;;;;;;6707927;88;20759;-80
2022/05/02 22:08:35;;;;;;;9.73;6.67;;;14.80;99.90;;;;;;6703857;88;20189;-80
2022/05/02 22:18:35;;;;;;;10.35;6.68;;;14.50;99.90;;;;;;6709207;88;20515;-79
2022/05/02 22:28:36;;;;;;;9.63;6.32;;;14.30;99.90;;;;;;6710461;88;20611;-79
2022/05/02 22:38:36;;;;;;;11.90;6.70;;;14.00;99.90;;;;;;6701020;88;20231;-81
2022/05/02 22:48:37;;;;;;;12.55;6.90;;;13.90;99.90;;;;;;6704600;88;20203;-80
2022/05/02 23:09:41;;;;;;;11.00;6.65;;;13.60;99.90;;;;;;6707983;88;20389;-79
2022/05/02 23:19:42;;;;;;;13.77;7.10;;;13.50;99.90;;;;;;6708301;88;20289;-79
2022/05/02 23:29:42;;;;;;;11.32;7.05;;;13.40;99.90;;;;;;6707876;88;20265;-78
2022/05/02 23:39:55;;;;;;;12.45;7.20;;;13.20;99.90;;;;;;6709884;88;20177;-79
2022/05/02 23:50:06;;;;;;;11.63;7.82;;;13.10;99.90;;;;;;6710139;88;20958;-78
